createdAt,value
2022-09-01T00:00:30.125Z,21.63
2022-09-01T00:02:58.694Z,21.44
2022-09-01T00:05:27.121Z,21.61
2022-09-01T00:07:56.898Z,21.39
2022-09-01T00:10:25.449Z,21.37
2022-09-01T00:12:53.893Z,21.47
2022-09-01T00:15:22.329Z,21.17
2022-09-01T00:17:50.785Z,21.41
2022-09-01T00:20:20.755Z,21.34
2022-09-01T00:22:49.424Z,21.11
2022-09-01T00:25:20.785Z,21.29
2022-09-01T00:27:49.878Z,20.98
2022-09-01T00:30:18.489Z,20.90
2022-09-01T00:32:47.185Z,21.15
2022-09-01T00:35:16.197Z,20.50
2022-09-01T00:37:44.689Z,21.24
2022-09-01T00:40:15.805Z,20.78
2022-09-01T00:42:48.924Z,21.20
2022-09-01T00:45:17.350Z,20.31
2022-09-01T00:47:45.702Z,20.79
2022-09-01T00:50:16.684Z,20.69
2022-09-01T00:52:47.877Z,20.62
2022-09-01T00:55:19.385Z,20.43
2022-09-01T00:57:49.341Z,20.70
2022-09-01T01:00:20.273Z,20.67
2022-09-01T01:02:53.769Z,20.99
2022-09-01T01:05:23.406Z,21.56
2022-09-01T01:07:51.836Z,21.40
2022-09-01T01:10:23.906Z,21.13
2022-09-01T01:12:54.082Z,21.10
2022-09-01T01:15:22.572Z,21.42
2022-09-01T01:17:50.948Z,21.37
2022-09-01T01:20:37.640Z,21.51
2022-09-01T01:23:13.780Z,21.01
2022-09-01T01:25:45.287Z,21.02
2022-09-01T01:28:16.660Z,21.27
2022-09-01T01:30:52.402Z,20.69
2022-09-01T01:33:23.327Z,21.01
2022-09-01T01:35:52.667Z,21.09
2022-09-01T01:38:23.099Z,20.60
2022-09-01T01:40:53.927Z,20.52
2022-09-01T01:43:23.145Z,21.09
2022-09-01T01:45:54.060Z,20.95
2022-09-01T01:48:24.566Z,20.59
2022-09-01T01:50:54.397Z,20.80
2022-09-01T01:53:23.257Z,20.89
2022-09-01T01:55:53.091Z,20.81
2022-09-01T01:58:24.593Z,20.51
2022-09-01T02:00:54.996Z,20.67
2022-09-01T02:03:25.172Z,20.70
2022-09-01T02:05:54.745Z,20.10
2022-09-01T02:08:26.075Z,20.80
2022-09-01T02:10:57.833Z,21.00
2022-09-01T02:16:01.634Z,21.07
2022-09-01T02:18:34.361Z,20.93
2022-09-01T02:21:03.380Z,21.16
2022-09-01T02:23:32.712Z,20.61
2022-09-01T02:26:16.019Z,20.83
2022-09-01T02:31:14.131Z,20.83
2022-09-01T02:33:45.639Z,20.65
2022-09-01T02:36:17.369Z,21.07
2022-09-01T02:38:53.247Z,21.18
2022-09-01T02:41:25.260Z,20.87
2022-09-01T02:43:54.213Z,21.21
2022-09-01T02:46:24.483Z,21.10
2022-09-01T02:48:54.698Z,20.95
2022-09-01T02:51:25.496Z,20.98
2022-09-01T02:53:55.190Z,21.16
2022-09-01T02:56:27.378Z,20.98
2022-09-01T02:58:56.263Z,20.94
2022-09-01T03:01:26.546Z,21.09
2022-09-01T03:03:56.418Z,20.98
2022-09-01T03:06:26.050Z,21.19
2022-09-01T03:08:56.317Z,21.06
2022-09-01T03:11:26.091Z,20.79
2022-09-01T03:13:54.664Z,21.19
2022-09-01T03:16:23.617Z,21.45
2022-09-01T03:18:52.690Z,21.40
2022-09-01T03:21:21.101Z,21.16
2022-09-01T03:23:50.682Z,21.00
2022-09-01T03:26:22.062Z,21.11
2022-09-01T03:28:52.743Z,21.15
2022-09-01T03:31:21.567Z,20.97
2022-09-01T03:33:51.055Z,21.15
2022-09-01T03:36:20.240Z,21.13
2022-09-01T03:38:50.378Z,21.31
2022-09-01T03:41:21.639Z,21.20
2022-09-01T03:43:55.001Z,21.19
2022-09-01T03:46:24.398Z,21.28
2022-09-01T03:48:55.094Z,21.23
2022-09-01T03:51:25.567Z,21.30
2022-09-01T03:53:55.453Z,21.39
2022-09-01T03:56:27.507Z,20.98
2022-09-01T03:58:59.351Z,21.33
2022-09-01T04:01:29.617Z,21.27
2022-09-01T04:03:58.194Z,21.10
2022-09-01T04:06:26.659Z,21.21
2022-09-01T04:08:57.873Z,20.98
2022-09-01T04:11:26.491Z,21.06
2022-09-01T04:13:54.904Z,21.03
2022-09-01T04:16:44.092Z,21.05
2022-09-01T04:19:21.259Z,21.14
2022-09-01T04:21:51.706Z,21.09
2022-09-01T04:24:20.475Z,20.69
2022-09-01T04:26:49.672Z,20.71
2022-09-01T04:29:19.802Z,20.67
2022-09-01T04:31:52.113Z,20.90
2022-09-01T04:34:22.136Z,21.09
2022-09-01T04:36:55.998Z,20.79
2022-09-01T04:39:25.292Z,20.62
2022-09-01T04:41:54.183Z,20.46
2022-09-01T04:44:22.604Z,20.45
2022-09-01T04:46:52.326Z,20.78
2022-09-01T04:49:22.537Z,20.96
2022-09-01T04:51:54.040Z,20.87
2022-09-01T04:54:24.834Z,20.82
2022-09-01T04:56:55.013Z,20.95
2022-09-01T04:59:27.185Z,20.90
2022-09-01T05:02:00.589Z,21.06
2022-09-01T05:04:33.930Z,21.15
2022-09-01T05:07:03.044Z,21.08
2022-09-01T05:09:32.946Z,20.87
2022-09-01T05:12:12.955Z,21.14
2022-09-01T05:14:48.658Z,21.11
2022-09-01T05:17:18.966Z,20.96
2022-09-01T05:19:50.627Z,21.40
2022-09-01T05:22:22.291Z,21.56
2022-09-01T05:24:54.968Z,21.43
2022-09-01T05:27:23.939Z,21.43
2022-09-01T05:29:53.197Z,21.47
2022-09-01T05:32:26.106Z,21.82
2022-09-01T05:34:55.064Z,21.75
2022-09-01T05:37:23.691Z,21.33
2022-09-01T05:39:52.962Z,21.61
2022-09-01T05:42:21.863Z,20.97
2022-09-01T05:44:52.710Z,21.43
2022-09-01T05:47:23.659Z,20.99
2022-09-01T05:49:53.625Z,21.79
2022-09-01T05:52:25.618Z,21.01
2022-09-01T05:54:55.606Z,21.81
2022-09-01T05:57:34.774Z,21.94
2022-09-01T06:00:11.065Z,22.05
2022-09-01T06:02:42.715Z,22.14
2022-09-01T06:05:11.627Z,22.04
2022-09-01T06:07:42.793Z,21.44
2022-09-01T06:10:11.692Z,21.98
2022-09-01T06:12:40.662Z,21.60
2022-09-01T06:15:16.115Z,21.47
2022-09-01T06:17:49.279Z,22.16
2022-09-01T06:20:19.081Z,21.97
2022-09-01T06:22:47.663Z,21.96
2022-09-01T06:25:17.484Z,22.38
2022-09-01T06:27:48.233Z,22.44
2022-09-01T06:30:23.778Z,21.83
2022-09-01T06:32:54.042Z,22.11
2022-09-01T06:35:25.188Z,21.84
2022-09-01T06:37:54.287Z,22.01
2022-09-01T06:40:25.455Z,22.31
2022-09-01T06:42:54.351Z,21.34
2022-09-01T06:45:24.983Z,22.08
2022-09-01T06:47:57.599Z,22.10
2022-09-01T06:56:09.072Z,22.08
2022-09-01T06:58:40.424Z,21.45
2022-09-01T07:01:14.625Z,21.51
2022-09-01T07:03:45.507Z,21.76
2022-09-01T07:06:59.026Z,21.96
2022-09-01T07:17:30.656Z,22.07
2022-09-01T07:20:23.185Z,22.73
2022-09-01T07:23:05.528Z,22.54
2022-09-01T07:28:39.417Z,22.19
2022-09-01T07:41:43.272Z,21.83
2022-09-01T07:42:30.152Z,21.77
2022-09-01T07:42:56.940Z,21.91
2022-09-01T07:45:25.915Z,22.04
2022-09-01T07:47:55.174Z,21.84
2022-09-01T07:53:20.164Z,22.23
2022-09-01T07:55:49.977Z,21.91
2022-09-01T07:58:20.168Z,21.48
2022-09-01T08:00:49.875Z,23.00
2022-09-01T08:03:21.144Z,22.54
2022-09-01T08:05:53.700Z,23.06
2022-09-01T08:08:28.782Z,23.09
2022-09-01T08:11:05.125Z,23.86
2022-09-01T08:13:39.089Z,23.48
2022-09-01T08:16:18.558Z,23.10
2022-09-01T08:18:48.851Z,24.02
2022-09-01T08:21:19.287Z,24.30
2022-09-01T08:23:49.033Z,24.09
2022-09-01T08:26:19.424Z,24.31
2022-09-01T08:28:54.978Z,23.88
2022-09-01T08:31:25.051Z,23.69
2022-09-01T08:33:54.229Z,22.53
2022-09-01T08:36:24.904Z,23.33
2022-09-01T08:38:55.664Z,24.26
2022-09-01T08:41:35.489Z,22.63
2022-09-01T08:44:10.639Z,22.72
2022-09-01T08:46:41.419Z,23.74
2022-09-01T08:49:25.279Z,24.38
2022-09-01T08:51:55.581Z,24.05
2022-09-01T08:54:29.786Z,25.00
2022-09-01T08:57:02.975Z,24.45
2022-09-01T08:59:31.325Z,23.79
2022-09-01T09:02:07.314Z,24.99
2022-09-01T09:04:49.930Z,23.89
2022-09-01T09:07:26.651Z,23.93
2022-09-01T09:09:59.396Z,24.67
2022-09-01T09:12:48.952Z,23.85
2022-09-01T09:15:24.019Z,24.40
2022-09-01T09:18:00.405Z,24.20
2022-09-01T09:20:29.713Z,24.22
2022-09-01T09:22:59.745Z,24.61
2022-09-01T09:25:31.052Z,23.43
2022-09-01T09:28:01.287Z,24.89
2022-09-01T09:30:32.206Z,25.25
2022-09-01T09:35:54.396Z,25.52
2022-09-01T09:38:30.370Z,24.61
2022-09-01T09:41:20.316Z,25.55
2022-09-01T09:43:55.919Z,24.99
2022-09-01T09:46:27.504Z,26.00
2022-09-01T09:49:14.807Z,26.13
2022-09-01T09:51:48.481Z,24.96
2022-09-01T09:54:20.532Z,25.64
2022-09-01T09:56:51.235Z,24.77
2022-09-01T09:59:39.803Z,24.84
2022-09-01T10:02:23.169Z,24.31
2022-09-01T10:04:57.300Z,24.94
2022-09-01T10:07:33.204Z,24.84
2022-09-01T10:10:03.031Z,25.21
2022-09-01T10:12:34.780Z,24.65
2022-09-01T10:15:12.521Z,25.46
2022-09-01T10:17:44.337Z,24.42
2022-09-01T10:20:16.327Z,24.58
2022-09-01T10:22:48.426Z,25.26
2022-09-01T10:25:21.725Z,24.35
2022-09-01T10:27:55.034Z,24.78
2022-09-01T10:30:23.869Z,26.13
2022-09-01T10:32:56.074Z,26.01
2022-09-01T10:35:27.972Z,25.18
2022-09-01T10:37:58.075Z,26.07
2022-09-01T10:40:43.489Z,25.72
2022-09-01T10:43:36.326Z,25.87
2022-09-01T10:46:50.830Z,25.70
2022-09-01T10:49:36.093Z,26.05
2022-09-01T10:52:11.356Z,26.28
2022-09-01T10:55:00.805Z,26.26
2022-09-01T10:57:51.097Z,26.18
2022-09-01T11:00:37.900Z,26.56
2022-09-01T11:03:53.814Z,27.40
2022-09-01T11:07:16.854Z,26.87
2022-09-01T11:09:48.521Z,27.39
2022-09-01T11:12:45.450Z,27.20
2022-09-01T11:15:36.596Z,26.85
2022-09-01T11:18:11.320Z,26.88
2022-09-01T11:20:41.386Z,26.73
2022-09-01T11:23:15.456Z,27.83
2022-09-01T11:25:45.281Z,26.45
2022-09-01T11:28:42.807Z,26.08
2022-09-01T11:31:30.516Z,27.06
2022-09-01T11:34:06.761Z,27.25
2022-09-01T11:36:38.451Z,26.34
2022-09-01T11:39:10.992Z,26.97
2022-09-01T11:41:55.782Z,26.80
2022-09-01T11:44:27.917Z,27.23
2022-09-01T11:46:59.681Z,27.25
2022-09-01T11:49:32.756Z,27.76
2022-09-01T11:52:02.677Z,26.56
2022-09-01T11:54:40.370Z,27.94
2022-09-01T11:57:23.615Z,27.44
2022-09-01T11:59:52.632Z,27.33
2022-09-01T12:02:23.186Z,26.84
2022-09-01T12:04:52.753Z,27.47
2022-09-01T12:07:38.996Z,26.40
2022-09-01T12:10:18.935Z,27.00
2022-09-01T12:12:47.617Z,26.83
2022-09-01T12:15:21.745Z,26.60
2022-09-01T12:17:50.319Z,26.15
2022-09-01T12:20:29.870Z,27.29
2022-09-01T12:22:59.549Z,27.59
2022-09-01T12:25:30.921Z,27.66
2022-09-01T12:28:01.397Z,27.79
2022-09-01T12:30:30.066Z,28.44
2022-09-01T12:35:47.263Z,29.05
2022-09-01T12:38:26.749Z,27.95
2022-09-01T12:40:57.761Z,29.16
2022-09-01T12:43:36.872Z,28.52
2022-09-01T12:46:06.517Z,28.24
2022-09-01T12:48:36.795Z,27.53
2022-09-01T12:51:09.675Z,27.45
2022-09-01T12:53:38.027Z,27.68
2022-09-01T12:56:19.352Z,27.48
2022-09-01T12:58:54.737Z,28.32
2022-09-01T13:01:29.552Z,28.24
2022-09-01T13:04:26.414Z,27.55
2022-09-01T13:06:56.602Z,27.41
2022-09-01T13:09:26.068Z,27.67
2022-09-01T13:12:10.951Z,27.81
2022-09-01T13:14:40.812Z,27.61
2022-09-01T13:17:12.372Z,28.27
2022-09-01T13:19:42.651Z,27.33
2022-09-01T13:22:11.619Z,27.76
2022-09-01T13:24:40.539Z,27.81
2022-09-01T13:27:20.820Z,27.42
2022-09-01T13:29:50.352Z,27.34
2022-09-01T13:32:22.469Z,26.96
2022-09-01T13:34:52.354Z,26.45
2022-09-01T13:37:20.911Z,27.03
2022-09-01T13:39:49.385Z,26.60
2022-09-01T13:42:19.104Z,26.50
2022-09-01T13:44:49.763Z,26.24
2022-09-01T13:47:29.277Z,26.27
2022-09-01T13:50:07.749Z,26.51
2022-09-01T13:52:37.418Z,26.61
2022-09-01T13:55:06.944Z,26.31
2022-09-01T13:57:37.035Z,26.67
2022-09-01T14:00:10.840Z,26.35
2022-09-01T14:02:40.347Z,27.19
2022-09-01T14:05:09.663Z,27.33
2022-09-01T14:07:38.156Z,27.17
2022-09-01T14:10:07.641Z,27.40
2022-09-01T14:12:37.454Z,27.66
2022-09-01T14:15:12.295Z,27.06
2022-09-01T14:17:43.513Z,27.77
2022-09-01T14:20:14.889Z,28.04
2022-09-01T14:22:43.216Z,28.13
2022-09-01T14:25:12.152Z,27.76
2022-09-01T14:27:44.598Z,27.97
2022-09-01T14:30:15.753Z,27.21
2022-09-01T14:32:44.358Z,27.38
2022-09-01T14:35:13.178Z,27.25
2022-09-01T14:37:41.535Z,26.82
2022-09-01T14:40:16.587Z,28.32
2022-09-01T14:42:51.676Z,27.34
2022-09-01T14:45:22.142Z,27.71
2022-09-01T14:47:53.733Z,27.05
2022-09-01T14:50:23.428Z,26.97
2022-09-01T14:52:54.005Z,27.56
2022-09-01T14:55:23.567Z,27.45
2022-09-01T14:57:54.993Z,27.34
2022-09-01T15:00:25.175Z,26.53
2022-09-01T15:02:53.624Z,25.91
2022-09-01T15:05:22.250Z,26.91
2022-09-01T15:07:51.152Z,26.11
2022-09-01T15:10:24.436Z,25.77
2022-09-01T15:12:56.826Z,26.02
2022-09-01T15:15:26.139Z,26.33
2022-09-01T15:17:54.803Z,26.15
2022-09-01T15:20:41.210Z,25.82
2022-09-01T15:23:10.128Z,26.33
2022-09-01T15:25:38.704Z,26.06
2022-09-01T15:28:08.493Z,26.95
2022-09-01T15:30:37.431Z,26.14
2022-09-01T15:33:05.987Z,26.26
2022-09-01T15:35:34.750Z,26.83
2022-09-01T15:38:03.183Z,26.46
2022-09-01T15:40:32.029Z,27.06
2022-09-01T15:43:00.847Z,26.24
2022-09-01T15:45:30.545Z,26.31
2022-09-01T15:47:58.824Z,27.12
2022-09-01T15:50:28.034Z,26.18
2022-09-01T15:52:58.637Z,27.03
2022-09-01T15:55:28.396Z,26.36
2022-09-01T15:57:56.899Z,26.31
2022-09-01T16:00:27.307Z,26.55
2022-09-01T16:03:01.607Z,26.18
2022-09-01T16:05:34.413Z,26.20
2022-09-01T16:08:04.747Z,26.31
2022-09-01T16:10:35.077Z,26.23
2022-09-01T16:13:05.709Z,26.22
2022-09-01T16:15:35.219Z,26.37
2022-09-01T16:18:25.918Z,25.61
2022-09-01T16:21:00.593Z,25.64
2022-09-01T16:23:34.184Z,25.58
2022-09-01T16:26:02.608Z,25.42
2022-09-01T16:28:34.200Z,24.95
2022-09-01T16:31:06.070Z,25.51
2022-09-01T16:36:21.231Z,24.85
2022-09-01T16:38:52.054Z,25.47
2022-09-01T16:41:39.677Z,25.21
2022-09-01T16:44:19.454Z,24.63
2022-09-01T16:46:55.312Z,25.48
2022-09-01T16:49:28.095Z,25.39
2022-09-01T16:52:02.001Z,25.21
2022-09-01T16:54:38.586Z,25.20
2022-09-01T16:57:12.256Z,24.98
2022-09-01T16:59:45.100Z,25.32
2022-09-01T17:02:24.601Z,25.09
2022-09-01T17:04:58.262Z,25.41
2022-09-01T17:07:30.258Z,24.59
2022-09-01T17:10:02.164Z,25.36
2022-09-01T17:12:37.415Z,24.54
2022-09-01T17:15:12.759Z,23.95
2022-09-01T17:17:46.623Z,24.24
2022-09-01T17:20:16.866Z,24.57
2022-09-01T17:22:51.538Z,24.54
2022-09-01T17:25:27.948Z,24.68
2022-09-01T17:27:59.454Z,25.29
2022-09-01T17:30:27.853Z,24.95
2022-09-01T17:33:18.319Z,25.32
2022-09-01T17:35:59.501Z,25.23
2022-09-01T17:38:32.448Z,25.24
2022-09-01T17:41:07.852Z,24.74
2022-09-01T17:43:49.177Z,24.55
2022-09-01T17:46:21.752Z,24.70
2022-09-01T17:48:53.280Z,24.51
2022-09-01T17:51:26.948Z,24.55
2022-09-01T17:54:02.456Z,24.41
2022-09-01T17:56:38.982Z,23.75
2022-09-01T17:59:12.918Z,24.02
2022-09-01T18:01:47.459Z,23.64
2022-09-01T18:04:52.405Z,23.35
2022-09-01T18:07:46.088Z,23.68
2022-09-01T18:10:17.151Z,23.45
2022-09-01T18:12:45.520Z,23.26
2022-09-01T18:15:16.469Z,23.27
2022-09-01T18:17:47.030Z,23.10
2022-09-01T18:20:20.892Z,23.03
2022-09-01T18:22:54.423Z,22.53
2022-09-01T18:25:25.074Z,22.94
2022-09-01T18:27:53.384Z,23.00
2022-09-01T18:30:42.651Z,22.36
2022-09-01T18:33:27.585Z,22.27
2022-09-01T18:36:04.480Z,22.11
2022-09-01T18:38:42.090Z,22.68
2022-09-01T18:41:20.542Z,22.42
2022-09-01T18:43:52.962Z,22.34
2022-09-01T18:46:26.256Z,22.52
2022-09-01T18:49:02.211Z,22.17
2022-09-01T18:51:43.777Z,22.20
2022-09-01T18:54:17.452Z,22.19
2022-09-01T18:56:48.709Z,21.96
2022-09-01T18:59:36.606Z,22.43
2022-09-01T19:02:17.466Z,21.97
2022-09-01T19:04:46.349Z,21.71
2022-09-01T19:07:19.847Z,21.94
2022-09-01T19:09:54.342Z,21.45
2022-09-01T19:12:26.416Z,21.45
2022-09-01T19:15:00.785Z,21.77
2022-09-01T19:17:51.546Z,21.56
2022-09-01T19:20:24.428Z,21.57
2022-09-01T19:22:57.626Z,21.21
2022-09-01T19:25:37.615Z,21.34
2022-09-01T19:28:10.879Z,21.60
2022-09-01T19:30:44.033Z,21.54
2022-09-01T19:33:14.866Z,21.35
2022-09-01T19:35:44.438Z,21.33
2022-09-01T19:38:17.104Z,21.43
2022-09-01T19:40:49.141Z,21.22
2022-09-01T19:43:18.225Z,21.53
2022-09-01T19:45:59.406Z,21.28
2022-09-01T19:48:32.530Z,21.45
2022-09-01T19:51:05.477Z,21.21
2022-09-01T19:53:41.189Z,20.95
2022-09-01T19:56:15.672Z,21.55
2022-09-01T19:58:53.834Z,21.54
2022-09-01T20:01:26.116Z,21.16
2022-09-01T20:03:59.240Z,21.32
2022-09-01T20:06:34.024Z,20.96
2022-09-01T20:09:06.429Z,20.70
2022-09-01T20:11:44.666Z,20.77
2022-09-01T20:14:34.942Z,20.55
2022-09-01T20:17:05.385Z,20.49
2022-09-01T20:19:40.205Z,20.65
2022-09-01T20:22:22.466Z,20.78
2022-09-01T20:24:57.276Z,20.86
2022-09-01T20:27:32.660Z,21.00
2022-09-01T20:30:03.597Z,20.93
2022-09-01T20:32:37.779Z,20.89
2022-09-01T20:35:11.014Z,20.70
2022-09-01T20:37:42.466Z,20.54
2022-09-01T20:40:15.707Z,20.75
2022-09-01T20:42:54.084Z,20.72
2022-09-01T20:45:23.927Z,20.75
2022-09-01T20:47:55.409Z,20.59
2022-09-01T20:50:32.992Z,20.46
2022-09-01T20:53:10.571Z,20.49
2022-09-01T20:55:41.510Z,20.57
2022-09-01T20:58:16.765Z,20.60
2022-09-01T21:00:56.312Z,20.34
2022-09-01T21:03:33.918Z,20.25
2022-09-01T21:06:08.297Z,20.20
2022-09-01T21:08:44.810Z,20.26
2022-09-01T21:11:27.885Z,19.85
2022-09-01T21:14:08.362Z,19.73
2022-09-01T21:16:48.193Z,19.45
2022-09-01T21:19:20.753Z,20.07
2022-09-01T21:22:03.251Z,19.87
2022-09-01T21:24:31.730Z,20.04
2022-09-01T21:27:01.930Z,20.09
2022-09-01T21:29:43.598Z,19.94
2022-09-01T21:32:16.035Z,20.00
2022-09-01T21:34:44.924Z,19.77
2022-09-01T21:37:13.815Z,19.92
2022-09-01T21:39:42.257Z,19.90
2022-09-01T21:42:12.346Z,19.83
2022-09-01T21:44:44.623Z,19.72
2022-09-01T21:47:13.335Z,19.68
2022-09-01T21:49:42.022Z,19.63
2022-09-01T21:52:10.464Z,19.70
2022-09-01T21:54:38.821Z,19.71
2022-09-01T21:57:07.266Z,19.67
2022-09-01T21:59:35.639Z,19.49
2022-09-01T22:02:07.039Z,19.34
2022-09-01T22:04:37.121Z,19.38
2022-09-01T22:07:06.796Z,19.26
2022-09-01T22:09:35.110Z,19.14
2022-09-01T22:12:04.011Z,19.11
2022-09-01T22:14:32.392Z,18.95
2022-09-01T22:17:04.322Z,19.01
2022-09-01T22:19:35.665Z,19.17
2022-09-01T22:22:04.799Z,18.85
2022-09-01T22:24:33.134Z,18.99
2022-09-01T22:27:01.504Z,18.95
2022-09-01T22:29:29.839Z,19.04
2022-09-01T22:32:00.201Z,19.03
2022-09-01T22:34:28.553Z,18.91
2022-09-01T22:36:58.307Z,19.01
2022-09-01T22:39:26.706Z,19.11
2022-09-01T22:41:55.385Z,18.64
2022-09-01T22:44:24.300Z,18.77
2022-09-01T22:46:53.102Z,18.54
2022-09-01T22:49:21.423Z,18.65
2022-09-01T22:51:50.257Z,18.60
2022-09-01T22:54:19.971Z,18.70
2022-09-01T22:56:49.865Z,18.70
2022-09-01T22:59:18.355Z,18.72
2022-09-01T23:01:47.723Z,18.63
2022-09-01T23:04:17.512Z,18.70
2022-09-01T23:06:47.934Z,18.54
2022-09-01T23:09:17.036Z,18.37
2022-09-01T23:11:48.106Z,18.45
2022-09-01T23:14:16.526Z,18.21
2022-09-01T23:16:45.191Z,18.24
2022-09-01T23:19:13.796Z,18.51
2022-09-01T23:21:42.157Z,18.58
2022-09-01T23:24:10.510Z,18.62
2022-09-01T23:26:41.691Z,18.59
2022-09-01T23:29:11.849Z,18.69
2022-09-01T23:31:40.807Z,18.58
2022-09-01T23:34:09.918Z,18.54
2022-09-01T23:36:38.514Z,18.16
2022-09-01T23:39:07.376Z,17.92
2022-09-01T23:41:37.699Z,18.24
2022-09-01T23:44:09.449Z,18.32
2022-09-01T23:46:41.681Z,18.26
2022-09-01T23:49:10.892Z,18.25
2022-09-01T23:51:39.894Z,18.14
2022-09-01T23:54:08.378Z,18.31
2022-09-01T23:56:37.903Z,18.34
2022-09-01T23:59:07.122Z,18.37
